createdAt,value
2023-03-29T00:02:02.890Z,7.25
2023-03-29T00:04:29.812Z,4.13
2023-03-29T00:06:56.973Z,3.88
2023-03-29T00:09:26.560Z,4.57
2023-03-29T00:11:53.413Z,4.13
2023-03-29T00:14:20.240Z,4.60
2023-03-29T00:16:47.151Z,4.43
2023-03-29T00:19:13.962Z,5.07
2023-03-29T00:21:40.924Z,5.32
2023-03-29T00:24:07.864Z,3.60
2023-03-29T00:26:34.875Z,6.78
2023-03-29T00:29:01.825Z,5.53
2023-03-29T00:31:28.694Z,2.83
2023-03-29T00:33:55.874Z,2.72
2023-03-29T00:36:23.345Z,9.10
2023-03-29T00:38:50.038Z,3.30
2023-03-29T00:41:16.889Z,4.78
2023-03-29T00:43:59.870Z,4.05
2023-03-29T00:46:28.427Z,5.07
2023-03-29T00:49:02.304Z,3.67
2023-03-29T00:51:32.928Z,4.82
2023-03-29T00:54:03.494Z,5.28
2023-03-29T00:56:35.350Z,5.68
2023-03-29T00:59:23.777Z,3.63
2023-03-29T01:01:58.744Z,4.03
2023-03-29T01:04:47.682Z,2.40
2023-03-29T01:07:26.011Z,3.00
2023-03-29T01:10:04.632Z,2.45
2023-03-29T01:12:36.098Z,4.22
2023-03-29T01:15:10.013Z,3.85
2023-03-29T01:17:38.711Z,3.80
2023-03-29T01:20:14.384Z,4.10
2023-03-29T01:23:10.397Z,3.83
2023-03-29T01:26:04.553Z,3.80
2023-03-29T01:28:38.836Z,6.63
2023-03-29T01:31:11.224Z,4.07
2023-03-29T01:33:49.171Z,4.07
2023-03-29T01:36:21.219Z,3.05
2023-03-29T01:39:00.890Z,3.97
2023-03-29T01:41:40.602Z,4.97
2023-03-29T01:44:17.570Z,4.95
2023-03-29T01:46:52.433Z,4.95
2023-03-29T01:49:25.787Z,4.38
2023-03-29T01:52:03.488Z,7.38
2023-03-29T01:54:43.663Z,4.47
2023-03-29T01:57:12.328Z,5.80
2023-03-29T01:59:43.676Z,5.60
2023-03-29T02:02:14.822Z,4.18
2023-03-29T02:04:50.173Z,3.85
2023-03-29T02:07:21.529Z,4.47
2023-03-29T02:09:52.716Z,4.15
2023-03-29T02:12:20.879Z,5.32
2023-03-29T02:14:47.638Z,5.53
2023-03-29T02:17:26.323Z,4.40
2023-03-29T02:20:00.799Z,4.60
2023-03-29T02:22:37.613Z,2.95
2023-03-29T02:25:08.988Z,5.88
2023-03-29T02:27:38.108Z,3.95
2023-03-29T02:30:07.485Z,4.82
2023-03-29T02:32:48.918Z,5.10
2023-03-29T02:35:45.795Z,5.18
2023-03-29T02:38:14.772Z,3.92
2023-03-29T02:40:42.972Z,4.18
2023-03-29T02:43:11.783Z,6.05
2023-03-29T02:45:40.568Z,5.30
2023-03-29T02:48:12.555Z,5.45
2023-03-29T02:50:41.772Z,4.63
2023-03-29T02:53:17.177Z,5.20
2023-03-29T02:55:46.946Z,4.07
2023-03-29T02:58:15.595Z,5.00
2023-03-29T03:00:46.712Z,6.38
2023-03-29T03:03:15.667Z,5.32
2023-03-29T03:05:45.006Z,4.57
2023-03-29T03:08:11.851Z,7.72
2023-03-29T03:10:39.357Z,3.30
2023-03-29T03:13:06.721Z,5.03
2023-03-29T03:15:35.954Z,3.45
2023-03-29T03:18:03.853Z,3.42
2023-03-29T03:20:31.255Z,5.70
2023-03-29T03:22:58.557Z,3.13
2023-03-29T03:25:25.906Z,3.63
2023-03-29T03:27:53.212Z,5.35
2023-03-29T03:30:22.666Z,5.50
2023-03-29T03:32:58.219Z,3.55
2023-03-29T03:35:46.393Z,5.07
2023-03-29T03:38:15.402Z,4.07
2023-03-29T03:40:43.516Z,5.72
2023-03-29T03:43:10.464Z,4.82
2023-03-29T03:45:37.304Z,7.50
2023-03-29T03:48:11.805Z,6.80
2023-03-29T03:50:51.240Z,5.57
2023-03-29T03:53:18.897Z,5.30
2023-03-29T03:56:09.314Z,4.13
2023-03-29T03:58:51.770Z,4.45
2023-03-29T04:01:19.726Z,5.40
2023-03-29T04:03:58.081Z,4.93
2023-03-29T04:06:25.505Z,6.70
2023-03-29T04:09:13.072Z,4.55
2023-03-29T04:11:43.110Z,5.15
2023-03-29T04:14:11.229Z,6.78
2023-03-29T04:16:58.436Z,6.32
2023-03-29T04:19:43.813Z,5.00
2023-03-29T04:22:11.108Z,6.10
2023-03-29T04:24:38.101Z,5.10
2023-03-29T04:27:33.345Z,3.70
2023-03-29T04:30:05.152Z,4.55
2023-03-29T04:32:52.287Z,5.68
2023-03-29T04:35:19.325Z,5.95
2023-03-29T04:37:46.194Z,5.57
2023-03-29T04:40:15.522Z,6.43
2023-03-29T04:43:08.149Z,15.98
2023-03-29T04:45:37.350Z,22.92
2023-03-29T04:48:12.982Z,13.55
2023-03-29T04:50:46.814Z,12.00
2023-03-29T04:53:15.455Z,8.25
2023-03-29T04:55:43.775Z,9.00
2023-03-29T04:58:14.738Z,8.32
2023-03-29T05:00:43.076Z,11.48
2023-03-29T05:03:13.519Z,8.75
2023-03-29T05:05:50.730Z,8.60
2023-03-29T05:08:17.919Z,11.02
2023-03-29T05:11:10.517Z,20.73
2023-03-29T05:13:38.034Z,25.47
2023-03-29T05:16:06.875Z,19.70
2023-03-29T05:18:33.889Z,17.13
2023-03-29T05:21:01.065Z,15.85
2023-03-29T05:23:28.962Z,11.93
2023-03-29T05:26:15.482Z,16.58
2023-03-29T05:28:48.417Z,26.23
2023-03-29T05:31:17.070Z,35.60
2023-03-29T05:33:48.238Z,31.77
2023-03-29T05:36:17.552Z,31.35
2023-03-29T05:38:46.793Z,30.83
2023-03-29T05:41:15.932Z,29.05
2023-03-29T05:44:01.626Z,23.88
2023-03-29T05:46:29.726Z,22.73
2023-03-29T05:49:00.877Z,18.23
2023-03-29T05:51:45.799Z,18.60
2023-03-29T05:54:13.138Z,13.38
2023-03-29T05:56:39.935Z,11.77
2023-03-29T05:59:08.523Z,8.90
2023-03-29T06:01:35.907Z,10.55
2023-03-29T06:04:06.625Z,8.25
2023-03-29T06:06:41.719Z,12.55
2023-03-29T06:09:09.525Z,11.48
2023-03-29T06:11:40.835Z,12.68
2023-03-29T06:14:34.104Z,12.55
2023-03-29T06:17:14.759Z,11.10
2023-03-29T06:19:42.256Z,11.50
2023-03-29T06:22:09.048Z,8.32
2023-03-29T06:24:35.878Z,11.70
2023-03-29T06:27:09.114Z,10.60
2023-03-29T06:29:36.301Z,8.63
2023-03-29T06:32:03.375Z,12.13
2023-03-29T06:34:48.075Z,16.42
2023-03-29T06:37:33.000Z,10.43
2023-03-29T06:40:23.017Z,11.23
2023-03-29T06:42:51.142Z,11.45
2023-03-29T06:45:38.093Z,9.23
2023-03-29T06:48:10.757Z,12.13
2023-03-29T06:50:37.762Z,18.58
2023-03-29T06:53:13.427Z,12.15
2023-03-29T06:55:42.149Z,9.15
2023-03-29T06:58:29.165Z,9.20
2023-03-29T07:01:04.861Z,6.45
2023-03-29T07:03:46.686Z,10.95
2023-03-29T07:06:20.449Z,6.65
2023-03-29T07:08:52.347Z,9.00
2023-03-29T07:11:46.707Z,11.55
2023-03-29T07:14:21.974Z,7.40
2023-03-29T07:16:49.603Z,7.35
2023-03-29T07:19:30.342Z,7.85
2023-03-29T07:22:22.249Z,8.70
2023-03-29T07:24:54.339Z,6.10
2023-03-29T07:27:21.188Z,5.80
2023-03-29T07:29:50.071Z,7.35
2023-03-29T07:32:18.003Z,7.60
2023-03-29T07:34:44.774Z,8.50
2023-03-29T07:37:19.698Z,8.48
2023-03-29T07:39:47.374Z,12.10
2023-03-29T07:42:31.366Z,9.20
2023-03-29T07:44:58.664Z,8.18
2023-03-29T07:47:30.631Z,5.97
2023-03-29T07:49:59.293Z,9.40
2023-03-29T07:52:28.069Z,8.73
2023-03-29T07:54:56.150Z,8.43
2023-03-29T07:57:27.743Z,8.82
2023-03-29T07:59:57.043Z,7.40
2023-03-29T08:02:27.473Z,6.18
2023-03-29T08:04:58.953Z,7.22
2023-03-29T08:07:46.100Z,5.50
2023-03-29T08:10:27.870Z,8.10
2023-03-29T08:13:24.062Z,7.85
2023-03-29T08:16:14.801Z,8.73
2023-03-29T08:18:49.550Z,7.10
2023-03-29T08:21:17.317Z,9.25
2023-03-29T08:23:47.758Z,7.05
2023-03-29T08:26:36.449Z,6.82
2023-03-29T08:29:04.131Z,6.32
2023-03-29T08:31:30.873Z,9.23
2023-03-29T08:33:58.131Z,7.70
2023-03-29T08:36:43.669Z,7.22
2023-03-29T08:39:19.696Z,7.53
2023-03-29T08:42:06.719Z,7.72
2023-03-29T08:44:56.078Z,6.32
2023-03-29T08:49:56.592Z,6.22
2023-03-29T08:52:43.256Z,6.95
2023-03-29T08:55:42.856Z,4.65
2023-03-29T08:58:32.726Z,7.95
2023-03-29T09:01:03.596Z,9.07
2023-03-29T09:03:45.396Z,8.45
2023-03-29T09:06:22.076Z,6.97
2023-03-29T09:08:52.675Z,5.28
2023-03-29T09:11:23.735Z,4.55
2023-03-29T09:13:54.164Z,6.43
2023-03-29T09:19:15.649Z,4.75
2023-03-29T09:22:18.805Z,4.38
2023-03-29T09:25:10.823Z,4.68
2023-03-29T09:27:55.768Z,4.40
2023-03-29T09:30:41.692Z,6.68
2023-03-29T09:33:29.443Z,4.18
2023-03-29T09:36:40.655Z,4.97
2023-03-29T09:41:44.911Z,4.43
2023-03-29T09:44:29.817Z,7.82
2023-03-29T09:47:32.610Z,8.55
2023-03-29T09:50:23.082Z,6.70
2023-03-29T09:52:54.588Z,9.43
2023-03-29T09:55:28.717Z,7.88
2023-03-29T09:58:13.737Z,5.78
2023-03-29T10:00:45.395Z,3.03
2023-03-29T10:03:24.553Z,4.38
2023-03-29T10:06:09.934Z,4.43
2023-03-29T10:08:46.264Z,3.67
2023-03-29T10:11:47.734Z,3.75
2023-03-29T10:14:21.305Z,3.88
2023-03-29T10:16:55.854Z,5.03
2023-03-29T10:19:32.973Z,4.18
2023-03-29T10:22:08.421Z,6.10
2023-03-29T10:24:35.203Z,3.63
2023-03-29T10:27:06.929Z,3.30
2023-03-29T10:29:40.240Z,3.53
2023-03-29T10:32:23.079Z,4.05
2023-03-29T10:34:52.162Z,2.78
2023-03-29T10:37:21.152Z,1.38
2023-03-29T10:39:48.988Z,2.60
2023-03-29T10:42:18.576Z,1.50
2023-03-29T10:44:58.183Z,4.47
2023-03-29T10:47:26.142Z,3.47
2023-03-29T10:49:56.832Z,3.95
2023-03-29T10:52:25.198Z,3.83
2023-03-29T10:54:54.617Z,1.95
2023-03-29T10:57:51.860Z,1.85
2023-03-29T11:00:29.046Z,2.33
2023-03-29T11:03:20.222Z,1.67
2023-03-29T11:05:52.525Z,3.80
2023-03-29T11:08:43.649Z,3.22
2023-03-29T11:11:20.024Z,2.05
2023-03-29T11:14:13.667Z,4.53
2023-03-29T11:17:15.884Z,3.83
2023-03-29T11:20:08.371Z,2.03
2023-03-29T11:22:52.373Z,4.35
2023-03-29T11:25:30.152Z,2.72
2023-03-29T11:28:15.725Z,6.93
2023-03-29T11:31:06.355Z,2.90
2023-03-29T11:33:42.279Z,2.85
2023-03-29T11:36:39.311Z,2.38
2023-03-29T11:39:12.194Z,3.72
2023-03-29T11:41:43.962Z,2.67
2023-03-29T11:44:34.219Z,2.47
2023-03-29T11:47:22.720Z,3.35
2023-03-29T11:50:28.111Z,2.33
2023-03-29T11:53:02.238Z,1.80
2023-03-29T11:55:33.849Z,2.13
2023-03-29T11:58:13.286Z,4.20
2023-03-29T12:00:58.339Z,2.47
2023-03-29T12:03:46.216Z,3.72
2023-03-29T12:07:01.753Z,1.95
2023-03-29T12:09:47.877Z,3.33
2023-03-29T12:12:53.146Z,2.22
2023-03-29T12:15:24.973Z,2.67
2023-03-29T12:18:17.950Z,2.30
2023-03-29T12:20:49.850Z,2.70
2023-03-29T12:23:18.005Z,3.15
2023-03-29T12:26:12.020Z,1.92
2023-03-29T12:28:57.344Z,1.63
2023-03-29T12:31:24.192Z,3.20
2023-03-29T12:34:14.194Z,3.15
2023-03-29T12:37:24.679Z,2.35
2023-03-29T12:40:19.203Z,1.50
2023-03-29T12:43:08.717Z,2.85
2023-03-29T12:45:58.200Z,1.95
2023-03-29T12:48:28.098Z,2.83
2023-03-29T12:51:02.818Z,2.92
2023-03-29T12:53:35.768Z,1.75
2023-03-29T12:56:04.049Z,2.28
2023-03-29T12:58:40.308Z,2.92
2023-03-29T13:01:24.961Z,2.53
2023-03-29T13:04:01.718Z,4.82
2023-03-29T13:06:56.351Z,1.92
2023-03-29T13:09:30.079Z,3.08
2023-03-29T13:12:13.056Z,2.85
2023-03-29T13:14:46.429Z,2.75
2023-03-29T13:17:26.005Z,3.40
2023-03-29T13:20:09.547Z,4.57
2023-03-29T13:22:59.217Z,6.03
2023-03-29T13:25:45.150Z,3.75
2023-03-29T13:28:19.971Z,4.05
2023-03-29T13:30:58.938Z,4.05
2023-03-29T13:33:34.647Z,3.90
2023-03-29T13:36:11.776Z,4.72
2023-03-29T13:38:54.339Z,4.63
2023-03-29T13:41:40.389Z,5.07
2023-03-29T13:44:24.995Z,4.15
2023-03-29T13:47:14.037Z,4.43
2023-03-29T13:49:44.592Z,4.78
2023-03-29T13:52:34.540Z,6.30
2023-03-29T13:57:39.685Z,5.90
2023-03-29T14:00:20.226Z,6.40
2023-03-29T14:02:58.471Z,5.03
2023-03-29T14:05:41.897Z,4.15
2023-03-29T14:08:36.005Z,5.40
2023-03-29T14:11:06.974Z,5.63
2023-03-29T14:13:34.892Z,8.48
2023-03-29T14:16:06.945Z,7.22
2023-03-29T14:18:37.955Z,7.00
2023-03-29T14:21:05.732Z,8.23
2023-03-29T14:23:35.236Z,6.15
2023-03-29T14:26:16.648Z,5.65
2023-03-29T14:28:48.711Z,4.38
2023-03-29T14:31:21.841Z,6.10
2023-03-29T14:33:57.491Z,6.35
2023-03-29T14:36:27.190Z,5.25
2023-03-29T14:38:59.530Z,5.13
2023-03-29T14:41:31.293Z,4.35
2023-03-29T14:43:59.317Z,4.55
2023-03-29T14:46:27.337Z,6.53
2023-03-29T14:48:55.876Z,5.25
2023-03-29T14:51:28.590Z,6.22
2023-03-29T14:53:57.537Z,7.22
2023-03-29T14:56:26.357Z,7.65
2023-03-29T14:58:56.960Z,5.50
2023-03-29T15:01:26.197Z,4.38
2023-03-29T15:04:11.053Z,4.03
2023-03-29T15:06:42.493Z,9.90
2023-03-29T15:09:19.909Z,14.32
2023-03-29T15:11:52.680Z,16.35
2023-03-29T15:14:21.134Z,12.88
2023-03-29T15:16:50.181Z,7.72
2023-03-29T15:19:21.025Z,9.63
2023-03-29T15:21:49.907Z,13.15
2023-03-29T15:24:28.548Z,20.42
2023-03-29T15:27:17.046Z,9.98
2023-03-29T15:29:46.935Z,11.95
2023-03-29T15:32:25.693Z,14.60
2023-03-29T15:35:04.994Z,11.40
2023-03-29T15:37:32.130Z,9.05
2023-03-29T15:39:59.076Z,5.38
2023-03-29T15:42:26.352Z,4.18
2023-03-29T15:44:56.653Z,3.80
2023-03-29T15:47:24.074Z,6.45
2023-03-29T15:49:50.934Z,4.72
2023-03-29T15:52:17.723Z,5.43
2023-03-29T15:54:44.455Z,4.22
2023-03-29T15:57:15.206Z,4.95
2023-03-29T15:59:43.570Z,5.72
2023-03-29T16:02:17.545Z,5.95
2023-03-29T16:04:44.533Z,6.50
2023-03-29T16:07:17.094Z,5.97
2023-03-29T16:09:45.957Z,6.00
2023-03-29T16:12:13.543Z,5.40
2023-03-29T16:14:42.638Z,6.28
2023-03-29T16:17:09.919Z,7.05
2023-03-29T16:19:36.680Z,8.05
2023-03-29T16:22:07.378Z,6.68
2023-03-29T16:24:35.610Z,7.40
2023-03-29T16:27:02.836Z,8.77
2023-03-29T16:29:30.430Z,9.70
2023-03-29T16:31:57.658Z,14.02
2023-03-29T16:34:24.745Z,9.90
2023-03-29T16:36:53.053Z,7.45
2023-03-29T16:39:19.919Z,9.75
2023-03-29T16:41:48.852Z,14.00
2023-03-29T16:44:18.988Z,7.43
2023-03-29T16:46:47.310Z,6.30
2023-03-29T16:49:18.183Z,6.90
2023-03-29T16:51:47.204Z,7.47
2023-03-29T16:54:15.026Z,6.88
2023-03-29T16:56:41.874Z,6.20
2023-03-29T16:59:09.347Z,7.47
2023-03-29T17:01:36.585Z,4.82
2023-03-29T17:04:04.193Z,6.50
2023-03-29T17:06:32.674Z,5.45
2023-03-29T17:09:00.764Z,6.05
2023-03-29T17:11:28.331Z,8.40
2023-03-29T17:13:56.113Z,5.65
2023-03-29T17:16:23.035Z,5.57
2023-03-29T17:18:50.180Z,5.68
2023-03-29T17:21:17.129Z,5.20
2023-03-29T17:23:43.877Z,4.65
2023-03-29T17:26:11.899Z,4.88
2023-03-29T17:28:38.995Z,6.03
2023-03-29T17:31:09.735Z,3.55
2023-03-29T17:33:36.691Z,5.07
2023-03-29T17:36:05.856Z,4.30
2023-03-29T17:38:34.205Z,4.28
2023-03-29T17:41:02.784Z,3.67
2023-03-29T17:43:29.593Z,4.95
2023-03-29T17:45:56.693Z,5.72
2023-03-29T17:48:24.386Z,4.97
2023-03-29T17:50:51.508Z,2.83
2023-03-29T17:53:18.253Z,5.05
2023-03-29T17:55:45.038Z,4.75
2023-03-29T17:58:11.849Z,6.35
2023-03-29T18:00:38.721Z,5.00
2023-03-29T18:03:05.908Z,4.93
2023-03-29T18:05:34.309Z,6.55
2023-03-29T18:08:01.444Z,5.85
2023-03-29T18:10:28.291Z,4.45
2023-03-29T18:12:55.190Z,3.20
2023-03-29T18:15:22.042Z,6.82
2023-03-29T18:17:48.890Z,7.88
2023-03-29T18:20:16.218Z,7.53
2023-03-29T18:22:44.340Z,9.82
2023-03-29T18:25:11.314Z,7.32
2023-03-29T18:27:39.414Z,7.75
2023-03-29T18:30:08.663Z,10.10
2023-03-29T18:32:36.382Z,8.50
2023-03-29T18:35:03.542Z,9.45
2023-03-29T18:37:30.466Z,9.65
2023-03-29T18:39:57.213Z,10.73
2023-03-29T18:42:24.011Z,10.15
2023-03-29T18:44:51.282Z,9.13
2023-03-29T18:47:18.459Z,7.18
2023-03-29T18:49:45.648Z,13.90
2023-03-29T18:52:12.559Z,16.33
2023-03-29T18:54:39.461Z,14.52
2023-03-29T18:57:06.411Z,12.32
2023-03-29T18:59:35.909Z,7.88
2023-03-29T19:02:03.523Z,10.45
2023-03-29T19:04:30.525Z,7.88
2023-03-29T19:07:01.799Z,7.93
2023-03-29T19:09:28.855Z,7.95
2023-03-29T19:11:55.674Z,8.30
2023-03-29T19:14:25.239Z,10.77
2023-03-29T19:16:52.799Z,12.95
2023-03-29T19:19:21.387Z,21.73
2023-03-29T19:21:48.830Z,24.58
2023-03-29T19:24:16.594Z,19.50
2023-03-29T19:26:44.470Z,20.13
2023-03-29T19:29:11.765Z,13.63
2023-03-29T19:31:39.001Z,10.70
2023-03-29T19:34:07.110Z,10.45
2023-03-29T19:36:33.963Z,10.50
2023-03-29T19:39:01.244Z,11.88
2023-03-29T19:41:28.622Z,13.18
2023-03-29T19:43:55.535Z,11.32
2023-03-29T19:46:22.858Z,13.38
2023-03-29T19:48:51.707Z,9.15
2023-03-29T19:51:18.718Z,11.13
2023-03-29T19:53:45.418Z,11.00
2023-03-29T19:56:14.396Z,8.75
2023-03-29T19:58:41.356Z,9.90
2023-03-29T20:01:08.122Z,9.10
2023-03-29T20:03:36.158Z,12.45
2023-03-29T20:06:03.462Z,10.63
2023-03-29T20:08:30.545Z,9.30
2023-03-29T20:11:03.556Z,10.60
2023-03-29T20:13:38.063Z,11.13
2023-03-29T20:16:16.291Z,9.45
2023-03-29T20:18:46.676Z,9.73
2023-03-29T20:21:16.484Z,9.77
2023-03-29T20:23:44.215Z,8.18
2023-03-29T20:26:11.195Z,9.07
2023-03-29T20:28:38.171Z,12.35
2023-03-29T20:31:06.862Z,9.73
2023-03-29T20:33:33.840Z,7.60
2023-03-29T20:36:01.014Z,7.68
2023-03-29T20:38:28.020Z,8.63
2023-03-29T20:40:55.439Z,6.95
2023-03-29T20:43:22.381Z,6.38
2023-03-29T20:45:52.622Z,8.68
2023-03-29T20:48:23.220Z,7.28
2023-03-29T20:50:50.973Z,6.90
2023-03-29T20:53:18.363Z,8.93
2023-03-29T20:55:45.410Z,8.80
2023-03-29T20:58:12.310Z,7.32
2023-03-29T21:00:40.445Z,11.13
2023-03-29T21:03:08.627Z,8.98
2023-03-29T21:05:35.786Z,9.68
2023-03-29T21:08:04.505Z,10.13
2023-03-29T21:10:31.950Z,10.32
2023-03-29T21:13:02.597Z,12.20
2023-03-29T21:15:30.665Z,14.77
2023-03-29T21:17:58.376Z,13.60
2023-03-29T21:20:25.458Z,13.23
2023-03-29T21:22:52.198Z,14.57
2023-03-29T21:25:19.376Z,14.00
2023-03-29T21:27:46.301Z,14.95
2023-03-29T21:30:13.322Z,14.27
2023-03-29T21:32:40.155Z,13.02
2023-03-29T21:35:07.578Z,12.25
2023-03-29T21:37:34.383Z,13.15
2023-03-29T21:40:05.505Z,15.80
2023-03-29T21:42:33.407Z,13.77
2023-03-29T21:45:01.719Z,12.40
2023-03-29T21:47:28.524Z,13.85
2023-03-29T21:49:55.362Z,11.70
2023-03-29T21:52:22.461Z,12.68
2023-03-29T21:54:49.207Z,11.63
2023-03-29T21:57:16.291Z,12.00
2023-03-29T21:59:43.237Z,11.65
2023-03-29T22:02:10.282Z,15.75
2023-03-29T22:04:37.785Z,12.93
2023-03-29T22:07:06.018Z,12.27
2023-03-29T22:09:35.002Z,12.43
2023-03-29T22:12:02.972Z,16.08
2023-03-29T22:14:34.840Z,11.52
2023-03-29T22:17:05.746Z,12.52
2023-03-29T22:19:34.789Z,15.98
2023-03-29T22:22:01.690Z,11.45
2023-03-29T22:24:29.163Z,11.38
2023-03-29T22:26:56.200Z,12.90
2023-03-29T22:29:23.136Z,13.48
2023-03-29T22:31:50.553Z,12.88
2023-03-29T22:34:17.495Z,12.98
2023-03-29T22:36:44.278Z,11.70
2023-03-29T22:39:12.057Z,11.45
2023-03-29T22:41:39.065Z,10.48
2023-03-29T22:44:05.936Z,10.32
2023-03-29T22:46:32.796Z,12.77
2023-03-29T22:48:59.704Z,10.93
2023-03-29T22:51:27.264Z,14.77
2023-03-29T22:53:54.070Z,12.68
2023-03-29T22:56:22.157Z,11.63
2023-03-29T22:58:49.209Z,12.02
2023-03-29T23:01:16.257Z,14.60
2023-03-29T23:03:43.214Z,12.52
2023-03-29T23:06:10.282Z,13.05
2023-03-29T23:08:37.208Z,11.75
2023-03-29T23:11:05.183Z,12.95
2023-03-29T23:13:33.636Z,13.80
2023-03-29T23:16:02.459Z,12.75
2023-03-29T23:18:31.727Z,11.63
2023-03-29T23:20:59.065Z,11.70
2023-03-29T23:23:27.578Z,15.75
2023-03-29T23:25:55.851Z,12.52
2023-03-29T23:28:30.225Z,11.85
2023-03-29T23:31:18.502Z,9.52
2023-03-29T23:33:45.729Z,10.52
2023-03-29T23:36:15.328Z,11.18
2023-03-29T23:38:44.606Z,9.93
2023-03-29T23:41:12.931Z,12.25
2023-03-29T23:43:42.014Z,11.30
2023-03-29T23:46:14.244Z,10.90
2023-03-29T23:48:49.099Z,12.02
2023-03-29T23:51:23.258Z,12.02
2023-03-29T23:53:50.718Z,10.15
2023-03-29T23:56:17.715Z,9.38
2023-03-29T23:58:44.887Z,9.55
